createdAt,value
2023-04-02T00:01:01.621Z,16.92
2023-04-02T00:06:33.178Z,14.05
2023-04-02T00:11:38.825Z,16.88
2023-04-02T00:16:41.651Z,14.25
2023-04-02T00:21:45.943Z,9.23
2023-04-02T00:26:51.195Z,13.82
2023-04-02T00:31:54.869Z,12.50
2023-04-02T00:42:06.280Z,11.45
2023-04-02T00:47:22.911Z,9.35
2023-04-02T00:52:28.344Z,9.88
2023-04-02T00:57:33.767Z,12.18
2023-04-02T01:02:38.777Z,9.68
2023-04-02T01:07:52.304Z,9.38
2023-04-02T01:13:33.895Z,10.25
2023-04-02T01:18:57.074Z,11.73
2023-04-02T01:24:02.807Z,8.30
2023-04-02T01:29:28.078Z,11.20
2023-04-02T01:34:31.196Z,7.97
2023-04-02T01:39:46.073Z,11.57
2023-04-02T01:45:01.681Z,9.48
2023-04-02T01:50:24.482Z,7.03
2023-04-02T01:55:43.114Z,8.55
2023-04-02T02:01:07.350Z,8.98
2023-04-02T02:06:16.249Z,6.65
2023-04-02T02:11:22.689Z,7.82
2023-04-02T02:16:29.492Z,6.40
2023-04-02T02:21:45.515Z,8.02
2023-04-02T02:26:51.611Z,5.13
2023-04-02T02:31:55.186Z,5.32
2023-04-02T02:37:11.142Z,5.40
2023-04-02T02:42:18.598Z,7.38
2023-04-02T02:47:28.448Z,9.02
2023-04-02T02:52:36.541Z,6.10
2023-04-02T02:57:54.290Z,8.32
2023-04-02T03:02:59.057Z,9.57
2023-04-02T03:08:07.492Z,7.85
2023-04-02T03:13:22.478Z,8.15
2023-04-02T03:18:54.966Z,7.25
2023-04-02T03:24:01.715Z,6.28
2023-04-02T03:29:11.993Z,9.52
2023-04-02T03:34:20.505Z,11.30
2023-04-02T03:39:28.456Z,7.18
2023-04-02T03:44:54.654Z,6.75
2023-04-02T03:50:00.924Z,9.70
2023-04-02T03:55:12.190Z,6.53
2023-04-02T04:00:25.084Z,5.60
2023-04-02T04:05:38.061Z,5.10
2023-04-02T04:10:42.536Z,6.97
2023-04-02T04:15:45.951Z,10.45
2023-04-02T04:21:02.347Z,6.00
2023-04-02T04:26:13.300Z,5.90
2023-04-02T04:31:25.954Z,6.07
2023-04-02T04:36:33.991Z,6.32
2023-04-02T04:41:42.251Z,5.53
2023-04-02T04:47:00.634Z,4.22
2023-04-02T04:52:10.669Z,7.03
2023-04-02T04:57:30.238Z,5.20
2023-04-02T05:02:55.142Z,5.22
2023-04-02T05:08:01.100Z,5.15
2023-04-02T05:13:11.149Z,6.35
2023-04-02T05:18:28.306Z,4.50
2023-04-02T05:23:37.861Z,3.08
2023-04-02T05:28:47.994Z,3.25
2023-04-02T05:33:50.493Z,3.20
2023-04-02T05:38:53.816Z,4.70
2023-04-02T05:44:19.805Z,3.28
2023-04-02T05:49:48.049Z,4.63
2023-04-02T05:54:58.658Z,5.30
2023-04-02T06:00:06.357Z,8.13
2023-04-02T06:05:17.995Z,4.68
2023-04-02T06:10:24.969Z,2.70
2023-04-02T06:15:28.168Z,3.55
2023-04-02T06:20:36.201Z,4.25
2023-04-02T06:26:10.547Z,6.70
2023-04-02T06:31:29.100Z,3.75
2023-04-02T06:36:33.308Z,7.55
2023-04-02T06:41:39.857Z,8.40
2023-04-02T06:47:02.235Z,8.35
2023-04-02T06:52:09.111Z,5.82
2023-04-02T06:57:12.922Z,4.05
2023-04-02T07:02:33.750Z,6.22
2023-04-02T07:07:37.823Z,7.35
2023-04-02T07:12:43.579Z,4.13
2023-04-02T07:17:48.865Z,5.32
2023-04-02T07:22:51.806Z,5.47
2023-04-02T07:27:56.146Z,7.85
2023-04-02T07:32:59.020Z,7.55
2023-04-02T07:38:01.621Z,10.82
2023-04-02T07:43:05.089Z,8.05
2023-04-02T07:48:13.385Z,9.80
2023-04-02T07:53:30.223Z,7.78
2023-04-02T07:58:37.157Z,7.90
2023-04-02T08:03:39.624Z,8.73
2023-04-02T08:08:42.513Z,3.42
2023-04-02T08:13:47.285Z,8.40
2023-04-02T08:18:51.430Z,6.75
2023-04-02T08:23:54.135Z,5.83
2023-04-02T08:28:59.888Z,20.35
2023-04-02T08:34:03.347Z,8.15
2023-04-02T08:39:11.083Z,38.42
2023-04-02T08:44:18.961Z,14.52
2023-04-02T08:49:30.116Z,21.98
2023-04-02T08:54:38.215Z,66.57
2023-04-02T08:59:42.620Z,21.95
2023-04-02T09:04:45.326Z,16.70
2023-04-02T09:09:50.055Z,31.67
2023-04-02T09:15:18.639Z,17.63
2023-04-02T09:20:26.656Z,7.57
2023-04-02T09:25:31.612Z,10.77
2023-04-02T09:30:56.570Z,19.15
2023-04-02T09:35:59.389Z,14.88
2023-04-02T09:41:06.802Z,8.57
2023-04-02T09:46:24.013Z,12.00
2023-04-02T09:51:30.230Z,7.72
2023-04-02T09:56:34.470Z,8.85
2023-04-02T10:01:39.792Z,8.45
2023-04-02T10:06:50.003Z,6.72
2023-04-02T10:11:54.174Z,23.95
2023-04-02T10:16:58.598Z,16.95
2023-04-02T10:22:04.929Z,10.73
2023-04-02T10:27:26.411Z,23.13
2023-04-02T10:32:48.982Z,18.83
2023-04-02T10:38:16.285Z,23.55
2023-04-02T10:43:40.468Z,11.75
2023-04-02T10:49:13.678Z,6.95
2023-04-02T10:54:53.294Z,14.17
2023-04-02T11:00:07.043Z,9.52
2023-04-02T11:15:27.531Z,15.15
2023-04-02T11:20:48.440Z,14.25
2023-04-02T11:25:51.299Z,10.68
2023-04-02T11:30:54.034Z,11.70
2023-04-02T11:35:57.145Z,21.13
2023-04-02T11:41:00.050Z,9.55
2023-04-02T11:46:30.798Z,14.43
2023-04-02T11:51:33.589Z,7.35
2023-04-02T11:56:47.403Z,10.07
2023-04-02T12:02:17.403Z,6.75
2023-04-02T12:07:36.942Z,10.45
2023-04-02T12:12:39.662Z,17.63
2023-04-02T12:17:42.536Z,10.57
2023-04-02T12:22:54.039Z,9.98
2023-04-02T12:28:19.215Z,7.65
2023-04-02T12:33:37.595Z,10.88
2023-04-02T12:38:58.858Z,6.95
2023-04-02T12:44:03.543Z,6.43
2023-04-02T12:49:20.969Z,6.22
2023-04-02T12:54:23.393Z,5.55
2023-04-02T12:59:36.299Z,11.93
2023-04-02T13:04:50.308Z,24.60
2023-04-02T13:09:54.935Z,51.83
2023-04-02T13:14:58.647Z,19.75
2023-04-02T13:20:32.012Z,12.75
2023-04-02T13:25:36.668Z,11.13
2023-04-02T13:30:39.467Z,21.98
2023-04-02T13:35:42.729Z,14.18
2023-04-02T13:40:45.406Z,13.83
2023-04-02T13:45:51.520Z,6.90
2023-04-02T13:50:54.134Z,8.38
2023-04-02T13:55:57.581Z,3.95
2023-04-02T14:01:01.124Z,5.60
2023-04-02T14:11:23.522Z,13.07
2023-04-02T14:16:57.171Z,15.93
2023-04-02T14:22:21.443Z,7.93
2023-04-02T14:27:33.010Z,7.50
2023-04-02T14:32:51.639Z,6.45
2023-04-02T14:38:19.508Z,9.82
2023-04-02T14:43:28.551Z,7.45
2023-04-02T14:48:37.352Z,6.82
2023-04-02T14:53:51.868Z,7.00
2023-04-02T14:59:14.800Z,7.47
2023-04-02T15:04:21.244Z,6.37
2023-04-02T15:09:40.618Z,7.20
2023-04-02T15:14:46.624Z,9.70
2023-04-02T15:19:49.818Z,9.50
2023-04-02T15:25:06.985Z,8.20
2023-04-02T15:30:23.825Z,10.70
2023-04-02T15:35:32.666Z,7.03
2023-04-02T15:40:46.701Z,9.73
2023-04-02T15:46:00.665Z,13.93
2023-04-02T15:51:08.439Z,20.45
2023-04-02T15:56:25.122Z,16.17
2023-04-02T16:01:36.671Z,44.78
2023-04-02T16:07:03.822Z,29.02
2023-04-02T16:12:14.414Z,16.73
2023-04-02T16:17:25.844Z,17.63
2023-04-02T16:22:30.441Z,16.15
2023-04-02T16:27:38.687Z,20.20
2023-04-02T16:33:00.332Z,35.17
2023-04-02T16:38:23.293Z,30.80
2023-04-02T16:43:32.458Z,31.08
2023-04-02T16:48:45.128Z,43.35
2023-04-02T16:54:02.223Z,57.35
2023-04-02T16:59:16.605Z,69.53
2023-04-02T17:04:29.224Z,76.38
2023-04-02T17:09:48.353Z,64.15
2023-04-02T17:14:54.821Z,65.78
2023-04-02T17:19:59.323Z,39.08
2023-04-02T17:25:04.301Z,27.30
2023-04-02T17:30:13.846Z,18.40
2023-04-02T17:35:19.056Z,39.25
2023-04-02T17:40:42.531Z,18.25
2023-04-02T17:45:56.922Z,17.10
2023-04-02T17:51:09.594Z,27.65
2023-04-02T17:56:23.367Z,20.27
2023-04-02T18:01:52.891Z,17.50
2023-04-02T18:07:05.994Z,19.65
2023-04-02T18:12:37.114Z,27.27
2023-04-02T18:17:50.567Z,38.40
2023-04-02T18:23:25.619Z,18.55
2023-04-02T18:28:37.545Z,19.70
2023-04-02T18:33:58.342Z,21.58
2023-04-02T18:39:16.657Z,19.50
2023-04-02T18:44:23.416Z,29.13
2023-04-02T18:49:37.108Z,19.73
2023-04-02T18:54:43.760Z,19.48
2023-04-02T19:00:05.998Z,19.38
2023-04-02T19:05:15.436Z,19.00
2023-04-02T19:10:37.003Z,25.00
2023-04-02T19:16:18.368Z,21.05
2023-04-02T19:21:28.949Z,18.45
2023-04-02T19:26:44.522Z,19.42
2023-04-02T19:31:58.321Z,19.80
2023-04-02T19:37:10.182Z,15.40
2023-04-02T19:42:29.927Z,12.52
2023-04-02T19:47:32.549Z,16.17
2023-04-02T19:52:35.005Z,27.10
2023-04-02T19:57:37.629Z,14.55
2023-04-02T20:02:41.768Z,20.57
2023-04-02T20:07:44.242Z,16.20
2023-04-02T20:12:46.632Z,14.05
2023-04-02T20:17:49.179Z,15.45
2023-04-02T20:22:51.772Z,16.57
2023-04-02T20:27:54.716Z,16.20
2023-04-02T20:32:59.269Z,12.77
2023-04-02T20:38:06.656Z,18.45
2023-04-02T20:43:10.170Z,15.55
2023-04-02T20:48:13.385Z,19.10
2023-04-02T20:53:17.068Z,10.80
2023-04-02T20:58:19.506Z,12.48
2023-04-02T21:03:21.925Z,16.10
2023-04-02T21:08:24.594Z,21.95
2023-04-02T21:13:29.629Z,19.65
2023-04-02T21:18:32.359Z,21.38
2023-04-02T21:23:35.082Z,20.73
2023-04-02T21:28:37.444Z,20.95
2023-04-02T21:33:42.325Z,11.43
2023-04-02T21:38:47.021Z,11.02
2023-04-02T21:43:49.874Z,12.80
2023-04-02T21:48:54.185Z,8.23
2023-04-02T21:53:57.416Z,14.70
2023-04-02T21:59:02.141Z,7.40
2023-04-02T22:04:07.942Z,11.63
2023-04-02T22:09:13.702Z,8.57
2023-04-02T22:14:17.681Z,11.75
2023-04-02T22:19:20.161Z,12.00
2023-04-02T22:24:22.764Z,12.63
2023-04-02T22:29:25.561Z,11.10
2023-04-02T22:34:30.577Z,8.52
2023-04-02T22:39:32.964Z,7.50
2023-04-02T22:44:35.318Z,11.60
2023-04-02T22:49:37.632Z,8.73
2023-04-02T22:54:39.956Z,9.00
2023-04-02T22:59:42.273Z,8.85
2023-04-02T23:04:44.745Z,16.38
2023-04-02T23:09:47.206Z,11.68
2023-04-02T23:14:49.614Z,9.07
2023-04-02T23:19:52.079Z,7.93
2023-04-02T23:24:54.808Z,5.72
2023-04-02T23:29:57.675Z,12.90
2023-04-02T23:35:00.168Z,10.83
2023-04-02T23:40:02.542Z,8.88
2023-04-02T23:45:05.190Z,6.78
2023-04-02T23:50:08.038Z,13.47
2023-04-02T23:55:12.340Z,9.45
